BBRO2: Mountain Fork, Broken Bow Rereg

                                SHEF ID:       BBRO2     Mountain Fork Re-regulation Dam
STATION TYPE:

STAGE RIV-FLOW VOLTAGE BAT-LOAD
ft cfs volt volt
Ccp-Rev Ccp-Rev Ccp-Rev Ccp-Rev
(America/Chicago)
04/28 00:00 393.36 1923 13.19 12.59
04/28 01:00 392.86 1668 13.19 12.58
04/28 02:00 392.41 1470 13.19 12.59
04/28 03:00 391.99 1305 13.19 12.60
04/28 04:00 391.64 1156 13.19 12.59
04/28 05:00 391.33 1038 13.19 12.59
04/28 06:00 391.03 935 13.19 12.60
04/28 07:00 390.78 818 13.19 12.60
04/28 08:00 390.57 728 13.19 12.61
04/28 09:00 390.37 651 13.19 12.59
04/28 10:00 390.21 596 13.19 12.59
04/28 11:00 390.05 545 13.19 12.60
04/28 12:00 389.91 498 13.19 12.59
04/28 13:00 389.82 467 13.19 12.70
04/28 14:00 389.72 436 13.19 12.66
04/28 15:00 389.62 406 13.19 12.65
04/28 16:00 389.52 379 13.19 12.63
04/28 17:00 389.96 515 13.20 12.64
04/28 18:00 392.88 1678 13.19 12.65
04/28 19:00 395.08 2891 13.19 12.65
04/28 20:00 396.93 3826 13.19 12.65
04/28 21:00 397.34 3981 13.16 12.64
04/28 22:00 396.71 3722 13.14 12.63
04/28 23:00 396.05 3426 13.19 12.63
Data processed at Wed 29Apr2026 04:34 GMT

NOTICE: If you are parsing this page

Please convert to using our Data API. Starting early 2026 we will be migrating to: https://water.usace.army.mil with modern pages rendered in JavaScript. When this migration completes you will no longer be able to scrape this page! CWMSDataAPI (CDA)

Timeseries IDs (TSIDs)

TSIDs used from left to right in the data table
BROM.Stage.Inst.1Hour.0.Ccp-Rev
BROM.Flow.Inst.1Hour.0.Ccp-Rev
BROM.Volt-Battery.Inst.1Hour.0.Ccp-Rev
BROM.Volt-Battery Load.Inst.1Hour.0.Ccp-Rev

                            

All information presented herein is the property of the government of the United States of America and may be revised or deleted at any time without prior notice. Dissemination of this information without the expressed written consent of the Public Affairs Office, Tulsa District U.S. Army Corps of Engineers is strictly prohibited. These data are gathered electronically and, as presented, have NOT undergone any form of quality control. These data are NOT guaranteed to be valid or correct.